createdAt,value
2022-12-20T00:09:37.920Z,-1.50
2022-12-20T00:19:44.053Z,-1.40
2022-12-20T00:29:49.891Z,-1.25
2022-12-20T00:39:54.053Z,-1.13
2022-12-20T00:49:58.237Z,-0.90
2022-12-20T01:00:01.873Z,-0.70
2022-12-20T01:10:06.793Z,-0.47
2022-12-20T01:20:10.722Z,-0.34
2022-12-20T01:30:14.397Z,-0.12
2022-12-20T01:40:18.363Z,0.08
2022-12-20T01:50:22.448Z,0.20
2022-12-20T02:00:28.668Z,0.37
2022-12-20T02:11:00.474Z,0.60
2022-12-20T02:21:14.023Z,0.68
2022-12-20T02:31:28.577Z,0.81
2022-12-20T02:41:44.128Z,0.97
2022-12-20T02:51:53.171Z,1.11
2022-12-20T03:01:57.862Z,1.14
2022-12-20T03:12:03.948Z,1.23
2022-12-20T03:22:09.362Z,1.26
2022-12-20T03:32:13.127Z,1.40
2022-12-20T03:42:22.729Z,1.44
2022-12-20T03:52:26.799Z,1.51
2022-12-20T04:02:30.810Z,1.49
2022-12-20T04:12:34.740Z,1.54
2022-12-20T04:22:41.248Z,1.46
2022-12-20T04:32:46.064Z,1.37
2022-12-20T04:42:50.474Z,1.40
2022-12-20T04:53:13.744Z,1.39
2022-12-20T05:03:22.438Z,1.35
2022-12-20T05:13:27.612Z,1.39
2022-12-20T05:23:52.707Z,1.44
2022-12-20T05:34:00.629Z,1.36
2022-12-20T05:44:08.805Z,1.35
2022-12-20T05:54:13.941Z,1.37
2022-12-20T06:04:39.268Z,1.41
2022-12-20T06:14:51.431Z,1.35
2022-12-20T06:24:56.356Z,1.34
2022-12-20T06:35:04.537Z,1.37
2022-12-20T06:45:09.774Z,1.43
2022-12-20T06:55:13.552Z,1.46
2022-12-20T07:05:19.538Z,1.48
2022-12-20T07:15:23.222Z,1.50
2022-12-20T07:25:26.900Z,1.55
2022-12-20T07:35:30.579Z,1.66
2022-12-20T07:45:34.497Z,1.69
2022-12-20T07:55:40.540Z,1.80
2022-12-20T08:05:52.771Z,1.88
2022-12-20T08:15:56.436Z,1.97
2022-12-20T08:26:03.217Z,2.21
2022-12-20T08:36:12.302Z,2.34
2022-12-20T08:46:16.034Z,2.44
2022-12-20T08:56:20.367Z,2.42
2022-12-20T09:06:24.279Z,2.37
2022-12-20T09:16:32.571Z,2.64
2022-12-20T09:26:36.574Z,3.03
2022-12-20T09:36:40.286Z,3.13
2022-12-20T09:46:45.093Z,3.18
2022-12-20T09:57:30.584Z,3.18
2022-12-20T10:07:45.895Z,3.06
2022-12-20T10:18:20.948Z,3.06
2022-12-20T10:28:34.911Z,3.12
2022-12-20T10:38:47.735Z,3.03
2022-12-20T10:48:51.976Z,3.27
2022-12-20T10:59:01.661Z,3.58
2022-12-20T11:09:36.340Z,3.91
2022-12-20T11:20:34.722Z,3.89
2022-12-20T11:30:52.720Z,3.99
2022-12-20T11:41:16.591Z,4.35
2022-12-20T11:51:41.760Z,4.32
2022-12-20T12:01:52.260Z,3.94
2022-12-20T12:12:24.797Z,3.75
2022-12-20T12:22:36.093Z,3.72
2022-12-20T12:32:44.371Z,3.71
2022-12-20T12:43:16.364Z,3.53
2022-12-20T12:53:22.373Z,3.53
2022-12-20T13:03:47.146Z,3.36
2022-12-20T13:13:50.922Z,3.18
2022-12-20T13:24:28.903Z,3.08
2022-12-20T13:34:54.866Z,3.04
2022-12-20T13:45:24.391Z,3.23
2022-12-20T13:55:50.567Z,3.21
2022-12-20T14:06:15.119Z,3.14
2022-12-20T14:16:32.188Z,3.11
2022-12-20T14:26:45.056Z,3.15
2022-12-20T14:36:50.610Z,3.16
2022-12-20T14:47:04.857Z,3.25
2022-12-20T14:57:20.343Z,3.28
2022-12-20T15:07:32.272Z,3.42
2022-12-20T15:17:35.930Z,3.38
2022-12-20T15:27:39.736Z,3.31
2022-12-20T15:37:43.474Z,3.37
2022-12-20T15:47:47.109Z,3.33
2022-12-20T15:57:50.841Z,3.23
2022-12-20T16:07:56.968Z,3.16
2022-12-20T16:18:01.950Z,3.25
2022-12-20T16:28:13.270Z,3.28
2022-12-20T16:38:20.440Z,3.41
2022-12-20T16:48:25.453Z,3.43
2022-12-20T16:59:00.069Z,3.49
2022-12-20T17:19:14.487Z,3.45
2022-12-20T17:29:20.998Z,3.39
2022-12-20T17:39:26.184Z,3.33
2022-12-20T17:49:29.989Z,3.31
2022-12-20T17:59:33.737Z,3.38
2022-12-20T18:09:37.494Z,3.46
2022-12-20T18:19:41.118Z,3.52
2022-12-20T18:29:44.775Z,3.57
2022-12-20T18:39:48.624Z,3.50
2022-12-20T18:49:55.008Z,3.46
2022-12-20T18:59:58.706Z,3.48
2022-12-20T19:10:02.378Z,3.50
2022-12-20T19:20:07.268Z,3.58
2022-12-20T19:30:11.319Z,3.60
2022-12-20T19:40:15.760Z,3.64
2022-12-20T19:50:21.587Z,3.63
2022-12-20T20:00:27.512Z,3.61
2022-12-20T20:10:33.352Z,3.66
2022-12-20T20:20:41.038Z,3.64
2022-12-20T20:30:47.083Z,3.68
2022-12-20T20:40:51.721Z,3.76
2022-12-20T20:50:55.633Z,3.73
2022-12-20T21:01:01.039Z,3.72
2022-12-20T21:11:09.314Z,3.76
2022-12-20T21:21:14.146Z,3.66
2022-12-20T21:31:21.574Z,3.59
2022-12-20T21:41:28.848Z,3.63
2022-12-20T21:51:34.559Z,3.67
2022-12-20T22:01:38.252Z,3.69
2022-12-20T22:11:42.372Z,3.68
2022-12-20T22:21:45.946Z,3.72
2022-12-20T22:31:50.770Z,3.78
2022-12-20T22:41:54.440Z,3.76
2022-12-20T22:52:06.881Z,3.77
2022-12-20T23:02:11.765Z,3.77
2022-12-20T23:12:34.957Z,3.80
2022-12-20T23:22:40.537Z,3.82
2022-12-20T23:32:44.906Z,3.71
2022-12-20T23:42:48.572Z,3.71
2022-12-20T23:52:52.292Z,3.71
